createdAt,value
2023-10-20T00:01:17.504Z,47.57
2023-10-20T00:03:47.473Z,45.17
2023-10-20T00:06:18.185Z,41.30
2023-10-20T00:08:48.740Z,41.43
2023-10-20T00:11:21.432Z,45.10
2023-10-20T00:13:51.350Z,43.00
2023-10-20T00:16:27.696Z,48.63
2023-10-20T00:18:57.885Z,57.67
2023-10-20T00:21:28.068Z,43.37
2023-10-20T00:23:57.965Z,50.70
2023-10-20T00:26:30.561Z,43.73
2023-10-20T00:29:00.637Z,46.63
2023-10-20T00:31:31.322Z,45.60
2023-10-20T00:34:01.555Z,50.07
2023-10-20T00:36:31.780Z,53.23
2023-10-20T00:39:01.841Z,52.43
2023-10-20T00:41:36.172Z,52.10
2023-10-20T00:44:06.443Z,57.40
2023-10-20T00:46:36.399Z,49.27
2023-10-20T00:49:06.954Z,50.50
2023-10-20T00:51:36.925Z,51.50
2023-10-20T00:54:07.349Z,56.93
2023-10-20T00:56:39.921Z,52.53
2023-10-20T00:59:10.769Z,52.97
2023-10-20T01:01:40.981Z,63.07
2023-10-20T01:04:11.100Z,56.07
2023-10-20T01:06:41.359Z,56.37
2023-10-20T01:09:11.731Z,56.73
2023-10-20T01:11:44.319Z,52.53
2023-10-20T01:14:14.212Z,60.80
2023-10-20T01:16:44.166Z,59.40
2023-10-20T01:19:14.097Z,54.23
2023-10-20T01:21:44.018Z,55.37
2023-10-20T01:24:16.562Z,70.13
2023-10-20T01:26:46.982Z,59.27
2023-10-20T01:29:16.918Z,65.47
2023-10-20T01:31:46.884Z,66.40
2023-10-20T01:34:17.204Z,66.70
2023-10-20T01:36:47.570Z,62.07
2023-10-20T01:39:20.613Z,59.90
2023-10-20T01:41:50.797Z,66.10
2023-10-20T01:44:20.781Z,65.00
2023-10-20T01:46:52.873Z,61.70
2023-10-20T01:49:22.845Z,64.37
2023-10-20T01:51:52.773Z,64.40
2023-10-20T01:54:25.257Z,78.50
2023-10-20T01:56:55.167Z,76.37
2023-10-20T01:59:25.350Z,73.40
2023-10-20T02:01:55.330Z,67.07
2023-10-20T02:04:25.349Z,71.33
2023-10-20T02:06:55.261Z,66.50
2023-10-20T02:09:27.760Z,70.47
2023-10-20T02:11:59.592Z,76.37
2023-10-20T02:14:29.803Z,69.07
2023-10-20T02:16:59.763Z,70.60
2023-10-20T02:19:29.700Z,69.73
2023-10-20T02:22:00.893Z,77.30
2023-10-20T02:24:33.617Z,79.70
2023-10-20T02:27:03.650Z,78.20
2023-10-20T02:29:34.712Z,77.57
2023-10-20T02:32:04.703Z,68.13
2023-10-20T02:34:35.910Z,75.67
2023-10-20T02:37:05.877Z,75.37
2023-10-20T02:39:38.512Z,71.83
2023-10-20T02:42:08.667Z,66.83
2023-10-20T02:44:38.666Z,79.60
2023-10-20T02:47:09.572Z,72.50
2023-10-20T02:49:39.513Z,64.67
2023-10-20T02:52:09.393Z,64.60
2023-10-20T02:54:41.855Z,65.67
2023-10-20T02:57:11.796Z,66.33
2023-10-20T02:59:41.661Z,67.30
2023-10-20T03:02:11.621Z,60.83
2023-10-20T03:04:41.645Z,67.33
2023-10-20T03:07:12.303Z,68.47
2023-10-20T03:09:44.749Z,64.27
2023-10-20T03:12:15.382Z,62.07
2023-10-20T03:14:45.307Z,60.43
2023-10-20T03:17:16.180Z,57.33
2023-10-20T03:19:47.492Z,54.87
2023-10-20T03:22:17.336Z,54.87
2023-10-20T03:24:49.757Z,53.07
2023-10-20T03:27:19.702Z,58.77
2023-10-20T03:29:50.121Z,59.10
2023-10-20T03:32:20.194Z,59.23
2023-10-20T03:34:50.468Z,46.60
2023-10-20T03:37:20.331Z,54.47
2023-10-20T03:39:54.433Z,55.80
2023-10-20T03:42:24.314Z,51.40
2023-10-20T03:44:54.706Z,47.30
2023-10-20T03:47:29.291Z,57.87
2023-10-20T03:50:02.102Z,52.33
2023-10-20T03:52:32.048Z,54.47
2023-10-20T03:55:04.570Z,56.97
2023-10-20T03:57:35.434Z,57.40
2023-10-20T04:00:19.043Z,59.50
2023-10-20T04:02:52.419Z,61.33
2023-10-20T04:05:22.363Z,40.20
2023-10-20T04:07:52.294Z,53.93
2023-10-20T04:10:25.135Z,56.47
2023-10-20T04:12:55.368Z,63.10
2023-10-20T04:15:27.524Z,44.07
2023-10-20T04:17:58.060Z,54.77
2023-10-20T04:20:28.051Z,58.70
2023-10-20T04:23:00.089Z,50.90
2023-10-20T04:25:34.620Z,56.00
2023-10-20T04:28:13.386Z,52.80
2023-10-20T04:30:55.709Z,45.67
2023-10-20T04:33:38.156Z,47.13
2023-10-20T04:36:20.687Z,57.10
2023-10-20T04:39:14.643Z,49.27
2023-10-20T04:42:19.914Z,56.63
2023-10-20T04:44:55.599Z,53.07
2023-10-20T04:47:38.118Z,42.00
2023-10-20T04:50:21.244Z,45.93
2023-10-20T04:53:12.146Z,42.83
2023-10-20T04:56:06.102Z,51.40
2023-10-20T04:58:45.299Z,35.73
2023-10-20T05:01:22.742Z,42.20
2023-10-20T05:03:54.772Z,39.33
2023-10-20T05:06:27.856Z,45.67
2023-10-20T05:08:57.791Z,40.30
2023-10-20T05:11:29.069Z,36.13
2023-10-20T05:14:01.817Z,39.73
2023-10-20T05:16:35.186Z,38.77
2023-10-20T05:19:06.037Z,38.23
2023-10-20T05:21:39.784Z,36.07
2023-10-20T05:24:10.819Z,38.80
2023-10-20T05:26:40.869Z,38.10
2023-10-20T05:29:13.727Z,32.93
2023-10-20T05:31:43.748Z,30.13
2023-10-20T05:34:14.671Z,42.47
2023-10-20T05:36:45.738Z,38.23
2023-10-20T05:39:16.508Z,36.73
2023-10-20T05:41:47.411Z,41.60
2023-10-20T05:44:23.734Z,38.80
2023-10-20T05:46:54.741Z,36.43
2023-10-20T05:49:22.577Z,42.10
2023-10-20T05:51:53.117Z,39.00
2023-10-20T05:54:24.799Z,27.73
2023-10-20T05:56:54.626Z,38.40
2023-10-20T05:59:27.246Z,38.67
2023-10-20T06:01:59.744Z,27.70
2023-10-20T06:04:29.752Z,29.17
2023-10-20T06:07:00.361Z,26.43
2023-10-20T06:09:30.218Z,32.10
2023-10-20T06:12:00.856Z,27.07
2023-10-20T06:14:33.580Z,26.30
2023-10-20T06:17:03.605Z,25.10
2023-10-20T06:19:33.603Z,22.53
2023-10-20T06:22:04.523Z,26.97
2023-10-20T06:24:34.668Z,16.63
2023-10-20T06:27:07.065Z,20.03
2023-10-20T06:29:48.931Z,22.87
2023-10-20T06:32:27.402Z,22.20
2023-10-20T06:35:01.197Z,17.83
2023-10-20T06:37:37.583Z,19.47
2023-10-20T06:40:09.736Z,12.00
2023-10-20T06:42:39.569Z,17.17
2023-10-20T06:45:12.780Z,21.37
2023-10-20T06:47:44.178Z,17.33
2023-10-20T06:50:14.520Z,16.90
2023-10-20T06:52:44.460Z,19.27
2023-10-20T06:55:40.253Z,17.57
2023-10-20T06:58:01.644Z,16.93
2023-10-20T07:00:35.980Z,17.90
2023-10-20T07:03:06.235Z,17.43
2023-10-20T07:05:38.978Z,13.97
2023-10-20T07:08:09.490Z,14.47
2023-10-20T07:10:40.018Z,14.20
2023-10-20T07:13:12.062Z,14.93
2023-10-20T07:15:44.588Z,12.43
2023-10-20T07:18:15.051Z,14.60
2023-10-20T07:20:45.063Z,11.63
2023-10-20T07:23:15.037Z,9.63
2023-10-20T07:25:44.872Z,8.80
2023-10-20T07:28:15.037Z,8.57
2023-10-20T07:30:47.469Z,7.50
2023-10-20T07:33:17.564Z,7.10
2023-10-20T07:35:47.540Z,8.33
2023-10-20T07:38:18.638Z,9.60
2023-10-20T07:40:48.703Z,7.43
2023-10-20T07:43:18.524Z,6.80
2023-10-20T07:45:51.440Z,7.53
2023-10-20T07:48:21.399Z,7.10
2023-10-20T07:50:51.832Z,6.90
2023-10-20T07:53:21.776Z,7.00
2023-10-20T07:55:51.729Z,6.83
2023-10-20T07:58:21.629Z,4.60
2023-10-20T08:00:54.172Z,5.33
2023-10-20T08:03:24.808Z,6.50
2023-10-20T08:05:55.065Z,4.80
2023-10-20T08:08:25.127Z,5.13
2023-10-20T08:10:55.276Z,6.03
2023-10-20T08:13:25.137Z,6.07
2023-10-20T08:15:57.644Z,6.73
2023-10-20T08:18:29.560Z,5.13
2023-10-20T08:21:07.244Z,7.00
2023-10-20T08:23:37.255Z,5.03
2023-10-20T08:26:07.171Z,5.93
2023-10-20T08:28:39.382Z,4.73
2023-10-20T08:31:15.242Z,5.50
2023-10-20T08:33:45.231Z,3.87
2023-10-20T08:36:16.474Z,2.97
2023-10-20T08:38:48.726Z,4.97
2023-10-20T08:41:20.501Z,4.13
2023-10-20T08:43:50.554Z,2.40
2023-10-20T08:46:24.779Z,3.00
2023-10-20T08:48:56.949Z,3.33
2023-10-20T08:51:27.153Z,2.80
2023-10-20T08:53:58.001Z,3.10
2023-10-20T08:56:29.070Z,3.03
2023-10-20T08:58:59.104Z,2.60
2023-10-20T09:01:35.634Z,2.50
2023-10-20T09:04:06.438Z,1.73
2023-10-20T09:06:38.024Z,2.00
2023-10-20T09:09:09.537Z,2.30
2023-10-20T09:11:40.485Z,2.73
2023-10-20T09:14:11.555Z,1.37
2023-10-20T09:16:44.611Z,3.83
2023-10-20T09:19:15.882Z,3.13
2023-10-20T09:21:49.264Z,3.23
2023-10-20T09:24:19.223Z,2.20
2023-10-20T09:26:49.144Z,1.93
2023-10-20T09:29:19.708Z,2.97
2023-10-20T09:31:53.446Z,3.23
2023-10-20T09:34:24.449Z,2.00
2023-10-20T09:36:57.834Z,6.13
2023-10-20T09:39:37.259Z,1.87
2023-10-20T09:42:09.838Z,2.20
2023-10-20T09:44:43.160Z,2.37
2023-10-20T09:47:23.600Z,4.20
2023-10-20T09:49:54.271Z,1.77
2023-10-20T09:52:24.332Z,3.13
2023-10-20T09:54:57.316Z,1.40
2023-10-20T09:57:28.739Z,4.30
2023-10-20T09:59:58.768Z,2.27
2023-10-20T10:02:35.650Z,1.80
2023-10-20T10:05:05.595Z,2.37
2023-10-20T10:07:37.594Z,2.57
2023-10-20T10:10:09.032Z,1.10
2023-10-20T10:12:39.127Z,1.73
2023-10-20T10:15:14.018Z,4.30
2023-10-20T10:17:50.475Z,1.50
2023-10-20T10:20:27.059Z,2.93
2023-10-20T10:23:04.009Z,1.30
2023-10-20T10:25:38.216Z,1.27
2023-10-20T10:28:16.310Z,1.10
2023-10-20T10:30:47.231Z,1.30
2023-10-20T10:33:25.567Z,10.20
2023-10-20T10:36:11.502Z,1.57
2023-10-20T10:38:46.036Z,1.40
2023-10-20T10:41:15.997Z,1.20
2023-10-20T10:43:45.901Z,2.10
2023-10-20T10:46:15.806Z,1.63
2023-10-20T10:48:48.703Z,2.03
2023-10-20T10:51:18.670Z,4.30
2023-10-20T10:53:48.743Z,1.97
2023-10-20T10:56:19.108Z,2.40
2023-10-20T10:58:49.208Z,2.50
2023-10-20T11:01:19.212Z,1.20
2023-10-20T11:03:51.862Z,2.30
2023-10-20T11:06:22.044Z,4.77
2023-10-20T11:08:51.908Z,1.60
2023-10-20T11:11:21.792Z,1.40
2023-10-20T11:13:51.694Z,2.07
2023-10-20T11:16:24.210Z,1.43
2023-10-20T11:18:56.904Z,2.13
2023-10-20T11:21:26.739Z,1.53
2023-10-20T11:23:57.956Z,1.13
2023-10-20T11:26:28.030Z,1.50
2023-10-20T11:28:59.599Z,1.30
2023-10-20T11:31:33.158Z,2.00
2023-10-20T11:34:05.868Z,1.10
2023-10-20T11:36:35.788Z,2.63
2023-10-20T11:39:07.970Z,1.90
2023-10-20T11:41:35.300Z,2.40
2023-10-20T11:44:05.333Z,2.70
2023-10-20T11:46:35.179Z,1.70
2023-10-20T11:49:07.855Z,2.30
2023-10-20T11:51:37.696Z,2.37
2023-10-20T11:54:08.674Z,1.63
2023-10-20T11:56:38.524Z,1.27
2023-10-20T11:59:08.646Z,1.80
2023-10-20T12:01:38.692Z,1.17
2023-10-20T12:04:12.351Z,1.43
2023-10-20T12:06:43.707Z,1.60
2023-10-20T12:09:16.451Z,1.63
2023-10-20T12:11:46.878Z,1.17
2023-10-20T12:14:16.833Z,1.70
2023-10-20T12:16:46.882Z,1.37
2023-10-20T12:19:19.718Z,1.63
2023-10-20T12:21:49.891Z,1.33
2023-10-20T12:24:19.942Z,0.90
2023-10-20T12:26:50.047Z,1.60
2023-10-20T12:29:23.978Z,1.10
2023-10-20T12:31:54.015Z,1.17
2023-10-20T12:34:26.649Z,1.67
2023-10-20T12:36:56.524Z,2.30
2023-10-20T12:39:29.354Z,1.13
2023-10-20T12:42:03.905Z,1.13
2023-10-20T12:44:35.543Z,1.70
2023-10-20T12:47:07.476Z,1.07
2023-10-20T12:49:41.092Z,0.90
2023-10-20T12:52:10.960Z,1.10
2023-10-20T12:54:40.877Z,0.97
2023-10-20T12:57:10.854Z,1.23
2023-10-20T12:59:40.810Z,1.23
2023-10-20T13:02:11.125Z,1.30
2023-10-20T13:04:43.641Z,4.83
2023-10-20T13:07:15.019Z,1.00
2023-10-20T13:09:45.289Z,1.37
2023-10-20T13:12:15.194Z,1.63
2023-10-20T13:14:45.110Z,1.10
2023-10-20T13:17:15.901Z,1.30
2023-10-20T13:19:51.048Z,2.50
2023-10-20T13:22:20.976Z,1.40
2023-10-20T13:24:50.834Z,3.17
2023-10-20T13:27:20.711Z,1.40
2023-10-20T13:29:50.662Z,2.00
2023-10-20T13:32:20.579Z,1.20
2023-10-20T13:34:53.503Z,1.00
2023-10-20T13:37:23.411Z,1.63
2023-10-20T13:39:54.977Z,1.43
2023-10-20T13:42:24.938Z,1.10
2023-10-20T13:44:54.865Z,0.83
2023-10-20T13:47:27.590Z,1.10
2023-10-20T13:50:03.412Z,1.10
2023-10-20T13:52:33.289Z,1.43
2023-10-20T13:55:03.281Z,1.50
2023-10-20T13:57:33.215Z,1.63
2023-10-20T14:00:03.234Z,1.00
2023-10-20T14:02:37.554Z,1.37
2023-10-20T14:05:10.699Z,2.10
2023-10-20T14:07:40.646Z,2.03
2023-10-20T14:10:11.616Z,2.33
2023-10-20T14:12:41.527Z,1.87
2023-10-20T14:15:12.406Z,3.87
2023-10-20T14:17:42.399Z,1.60
2023-10-20T14:20:15.513Z,2.70
2023-10-20T14:22:45.754Z,1.70
2023-10-20T14:25:15.663Z,1.50
2023-10-20T14:27:45.587Z,3.73
2023-10-20T14:30:15.874Z,1.60
2023-10-20T14:32:45.958Z,1.80
2023-10-20T14:35:18.687Z,1.93
2023-10-20T14:37:48.607Z,1.70
2023-10-20T14:40:18.751Z,2.00
2023-10-20T14:42:48.704Z,1.50
2023-10-20T14:45:18.938Z,1.60
2023-10-20T14:47:48.896Z,2.17
2023-10-20T14:50:21.561Z,2.60
2023-10-20T14:52:53.512Z,2.07
2023-10-20T14:55:24.352Z,2.50
2023-10-20T14:57:54.240Z,2.23
2023-10-20T15:00:24.507Z,4.33
2023-10-20T15:02:54.935Z,5.70
2023-10-20T15:05:27.547Z,4.70
2023-10-20T15:07:57.588Z,3.80
2023-10-20T15:10:30.599Z,4.67
2023-10-20T15:13:00.552Z,2.58
2023-10-20T15:15:34.319Z,2.27
2023-10-20T15:18:05.009Z,2.27
2023-10-20T15:20:37.626Z,3.40
2023-10-20T15:23:17.399Z,3.00
2023-10-20T15:25:51.413Z,3.43
2023-10-20T15:28:22.284Z,2.80
2023-10-20T15:30:52.498Z,6.20
2023-10-20T15:33:36.354Z,11.40
2023-10-20T15:36:10.576Z,2.43
2023-10-20T15:38:40.987Z,2.73
2023-10-20T15:41:11.342Z,2.03
2023-10-20T15:43:41.321Z,2.30
2023-10-20T15:46:11.370Z,4.60
2023-10-20T15:48:51.163Z,2.67
2023-10-20T15:51:23.673Z,2.50
2023-10-20T15:53:53.590Z,2.07
2023-10-20T15:56:23.541Z,3.00
2023-10-20T15:58:53.437Z,1.80
2023-10-20T16:01:23.644Z,2.47
2023-10-20T16:03:53.697Z,3.47
2023-10-20T16:06:26.295Z,2.90
2023-10-20T16:08:56.558Z,3.53
2023-10-20T16:11:26.891Z,4.43
2023-10-20T16:13:56.868Z,5.20
2023-10-20T16:16:27.328Z,4.20
2023-10-20T16:18:57.760Z,5.23
2023-10-20T16:21:30.646Z,5.70
2023-10-20T16:24:00.691Z,5.43
2023-10-20T16:26:30.973Z,6.67
2023-10-20T16:29:00.938Z,8.53
2023-10-20T16:31:30.825Z,9.57
2023-10-20T16:34:00.869Z,7.17
2023-10-20T16:36:35.332Z,5.60
2023-10-20T16:39:05.681Z,5.90
2023-10-20T16:41:36.140Z,7.07
2023-10-20T16:44:06.081Z,4.97
2023-10-20T16:46:36.085Z,6.67
2023-10-20T16:49:06.072Z,8.13
2023-10-20T16:51:39.381Z,7.70
2023-10-20T16:54:09.629Z,6.20
2023-10-20T16:56:39.849Z,10.07
2023-10-20T16:59:09.787Z,7.93
2023-10-20T17:01:39.734Z,8.73
2023-10-20T17:04:09.926Z,5.77
2023-10-20T17:06:43.015Z,7.53
2023-10-20T17:09:14.899Z,6.07
2023-10-20T17:11:45.706Z,9.23
2023-10-20T17:14:15.688Z,16.40
2023-10-20T17:16:46.652Z,9.67
2023-10-20T17:19:16.543Z,7.83
2023-10-20T17:21:49.118Z,6.03
2023-10-20T17:24:19.014Z,5.63
2023-10-20T17:26:50.628Z,5.77
2023-10-20T17:29:20.608Z,4.57
2023-10-20T17:31:50.511Z,6.20
2023-10-20T17:34:20.493Z,6.93
2023-10-20T17:36:54.279Z,5.20
2023-10-20T17:39:24.233Z,6.33
2023-10-20T17:41:54.204Z,8.00
2023-10-20T17:44:24.784Z,9.97
2023-10-20T17:46:54.731Z,7.10
2023-10-20T17:49:24.610Z,32.10
2023-10-20T17:51:57.126Z,34.23
2023-10-20T17:54:27.012Z,9.60
2023-10-20T17:56:56.909Z,8.37
2023-10-20T17:59:26.848Z,7.83
2023-10-20T18:01:57.352Z,7.13
2023-10-20T18:04:27.886Z,5.40
2023-10-20T18:07:00.462Z,5.07
2023-10-20T18:09:30.354Z,6.97
2023-10-20T18:12:00.309Z,7.37
2023-10-20T18:14:30.255Z,8.50
2023-10-20T18:17:00.229Z,8.40
2023-10-20T18:19:30.154Z,17.20
2023-10-20T18:22:02.618Z,18.00
2023-10-20T18:24:32.767Z,12.73
2023-10-20T18:27:02.760Z,6.70
2023-10-20T18:29:32.850Z,6.67
2023-10-20T18:32:04.065Z,5.93
2023-10-20T18:34:33.941Z,7.60
2023-10-20T18:37:06.589Z,5.87
2023-10-20T18:39:36.698Z,6.30
2023-10-20T18:42:07.617Z,6.50
2023-10-20T18:44:38.154Z,6.43
2023-10-20T18:47:08.734Z,6.37
2023-10-20T18:49:38.638Z,6.70
2023-10-20T18:52:11.483Z,9.17
2023-10-20T18:54:41.356Z,6.83
2023-10-20T18:57:11.308Z,8.23
2023-10-20T18:59:41.210Z,5.50
2023-10-20T19:02:11.134Z,8.47
2023-10-20T19:04:41.257Z,9.03
2023-10-20T19:07:13.980Z,7.27
2023-10-20T19:09:44.159Z,6.93
2023-10-20T19:12:14.234Z,7.60
2023-10-20T19:14:44.190Z,7.50
2023-10-20T19:17:14.096Z,6.03
2023-10-20T19:19:44.325Z,18.37
2023-10-20T19:22:16.889Z,10.53
2023-10-20T19:24:46.867Z,6.97
2023-10-20T19:27:16.782Z,7.57
2023-10-20T19:29:46.716Z,8.30
2023-10-20T19:32:16.855Z,8.53
2023-10-20T19:34:46.759Z,7.83
2023-10-20T19:37:19.223Z,9.00
2023-10-20T19:39:49.451Z,8.17
2023-10-20T19:42:19.380Z,7.40
2023-10-20T19:44:50.469Z,7.50
2023-10-20T19:47:20.463Z,7.63
2023-10-20T19:49:50.344Z,7.67
2023-10-20T19:52:22.829Z,8.70
2023-10-20T19:54:53.279Z,7.60
2023-10-20T19:57:23.203Z,7.90
2023-10-20T19:59:54.059Z,8.63
2023-10-20T20:02:24.253Z,12.50
2023-10-20T20:04:55.566Z,8.50
2023-10-20T20:07:28.885Z,8.23
2023-10-20T20:09:58.760Z,8.60
2023-10-20T20:12:28.669Z,7.97
2023-10-20T20:14:58.577Z,7.70
2023-10-20T20:17:28.654Z,9.27
2023-10-20T20:19:59.254Z,9.07
2023-10-20T20:22:32.480Z,9.13
2023-10-20T20:25:02.356Z,12.90
2023-10-20T20:27:33.594Z,8.57
2023-10-20T20:30:05.645Z,8.70
2023-10-20T20:32:35.934Z,12.67
2023-10-20T20:35:07.490Z,9.50
2023-10-20T20:37:40.067Z,10.40
2023-10-20T20:40:11.556Z,9.60
2023-10-20T20:42:41.446Z,11.90
2023-10-20T20:45:12.818Z,9.70
2023-10-20T20:47:42.923Z,11.47
2023-10-20T20:50:22.187Z,10.60
2023-10-20T20:52:58.947Z,11.90
2023-10-20T20:55:28.867Z,9.67
2023-10-20T20:57:58.799Z,11.93
2023-10-20T21:00:28.696Z,10.60
2023-10-20T21:02:58.652Z,13.77
2023-10-20T21:05:28.746Z,12.80
2023-10-20T21:08:01.247Z,12.20
2023-10-20T21:10:32.257Z,12.93
2023-10-20T21:13:02.157Z,12.00
2023-10-20T21:15:32.055Z,18.00
2023-10-20T21:18:02.511Z,11.97
2023-10-20T21:20:32.570Z,15.07
2023-10-20T21:23:05.042Z,11.27
2023-10-20T21:25:39.322Z,12.50
2023-10-20T21:28:10.263Z,12.47
2023-10-20T21:30:40.275Z,10.80
2023-10-20T21:33:10.345Z,14.73
2023-10-20T21:35:44.597Z,15.20
2023-10-20T21:38:17.678Z,11.57
2023-10-20T21:40:50.734Z,13.77
2023-10-20T21:43:20.647Z,13.30
2023-10-20T21:45:58.292Z,13.30
2023-10-20T21:48:28.540Z,14.30
2023-10-20T21:50:59.292Z,14.80
2023-10-20T21:53:35.439Z,14.67
2023-10-20T21:56:06.940Z,15.97
2023-10-20T21:58:38.445Z,15.60
2023-10-20T22:01:10.304Z,22.00
2023-10-20T22:03:41.967Z,12.77
2023-10-20T22:06:12.461Z,15.27
2023-10-20T22:08:45.042Z,13.07
2023-10-20T22:11:15.288Z,16.77
2023-10-20T22:13:45.208Z,15.30
2023-10-20T22:16:15.559Z,19.33
2023-10-20T22:18:49.898Z,13.73
2023-10-20T22:21:20.027Z,16.17
2023-10-20T22:23:52.545Z,15.27
2023-10-20T22:26:22.460Z,19.70
2023-10-20T22:28:52.323Z,18.07
2023-10-20T22:31:23.330Z,19.87
2023-10-20T22:33:53.268Z,14.07
2023-10-20T22:36:23.183Z,16.40
2023-10-20T22:38:55.700Z,17.70
2023-10-20T22:41:26.492Z,19.53
2023-10-20T22:43:57.407Z,22.23
2023-10-20T22:46:27.320Z,19.67
2023-10-20T22:48:57.205Z,18.00
2023-10-20T22:51:27.079Z,14.90
2023-10-20T22:53:59.591Z,16.77
2023-10-20T22:56:32.257Z,17.30
2023-10-20T22:59:02.161Z,17.07
2023-10-20T23:01:32.036Z,18.43
2023-10-20T23:04:02.066Z,14.20
2023-10-20T23:06:32.018Z,14.83
2023-10-20T23:09:04.685Z,16.13
2023-10-20T23:11:34.696Z,20.00
2023-10-20T23:14:04.690Z,20.47
2023-10-20T23:16:34.530Z,17.07
2023-10-20T23:19:04.983Z,17.13
2023-10-20T23:21:34.835Z,15.40
2023-10-20T23:24:07.854Z,19.43
2023-10-20T23:26:37.798Z,14.77
2023-10-20T23:29:07.728Z,15.07
2023-10-20T23:31:37.574Z,17.50
2023-10-20T23:34:07.743Z,13.57
2023-10-20T23:36:37.613Z,14.80
2023-10-20T23:39:10.092Z,16.03
2023-10-20T23:41:40.081Z,17.30
2023-10-20T23:44:10.047Z,13.57
2023-10-20T23:46:39.941Z,12.63
2023-10-20T23:49:09.764Z,16.87
2023-10-20T23:51:39.613Z,16.40
2023-10-20T23:54:12.201Z,15.30
2023-10-20T23:56:42.072Z,15.37
2023-10-20T23:59:11.904Z,15.43
